Flight Track Log - Related Links

Times and Time Zones

All times are in EDT time to prevent confusion due to time zone crossing. See the SWA499 flight status page for this flight to view local times or setup timezone preferences in your user account.

Time Position Orientation Groundspeed Altitude Reporting Facility
EDT Latitude Longitude Course Direction KTS MPH feet Rate Location/Type
Mon 02:44:27 PM 39.2667 -94.7333 206° Southwest 165 190 2,500  Level Kansas City TRACON
Mon 02:45:39 PM 39.2136 -94.7111 162° South 210 242 6,100 2,842 Climbing Kansas City Center
Mon 02:46:40 PM 39.2044 -94.6269 98° East 263 303 8,800 3,246 Climbing Kansas City Center
Mon 02:47:41 PM 39.2344 -94.5106 72° East 305 351 12,700 3,024 Climbing Kansas City Center
Mon 02:48:45 PM 39.2647 -94.4014 70° East 337 388 15,100 2,400 Climbing Kansas City Center
Mon 02:49:46 PM 39.2978 -94.2792 71° East 373 429 17,700 2,678 Climbing Kansas City Center
Mon 02:50:46 PM 39.3381 -94.1303 71° East 394 453 20,500 2,439 Climbing Kansas City Center
Mon 02:51:49 PM 39.3744 -93.9964 71° East 411 473 22,700 2,274 Climbing Kansas City Center
Mon 02:52:50 PM 39.4025 -93.8267 78° East 433 498 25,200 2,361 Climbing Kansas City Center
Mon 02:53:51 PM 39.4217 -93.6753 81° East 445 512 27,500 2,208 Climbing Kansas City Center
Mon 02:54:55 PM 39.4414 -93.5217 81° East 438 504 29,800 2,031 Climbing Kansas City Center
Mon 02:55:58 PM 39.4608 -93.3656 81° East 442 509 31,800 2,081 Climbing Kansas City Center
Mon 02:56:59 PM 39.4811 -93.1797 82° East 441 507 34,100 1,537 Climbing Kansas City Center
Mon 02:57:59 PM 39.4994 -93.0203 81° East 450 518 34,900 774 Climbing Kansas City Center
Mon 02:59:03 PM 39.5186 -92.8569 81° East 466 536 35,700 774 Climbing Kansas City Center
Mon 03:00:03 PM 39.5378 -92.6878 82° East 474 545 36,500 919 Climbing Kansas City Center
Mon 03:01:07 PM 39.5619 -92.4797 81° East 486 559 37,600 1,008 Climbing Kansas City Center
Mon 03:02:08 PM 39.5808 -92.3064 82° East 491 565 38,600 677 Climbing Kansas City Center
Mon 03:03:11 PM 39.5994 -92.1308 82° East 495 570 39,000 194 Climbing Kansas City Center
Mon 03:04:12 PM 39.6186 -91.9536 82° East 500 575 39,000  Level Kansas City Center
Mon 03:05:13 PM 39.6383 -91.7789 82° East 498 573 39,000  Level Kansas City Center
Mon 03:06:17 PM 39.6589 -91.5708 83° East 493 567 39,000  Level Kansas City Center
Mon 03:07:18 PM 39.6758 -91.3969 83° East 491 565 39,000  Level Kansas City Center
Mon 03:08:19 PM 39.6958 -91.2089 82° East 495 570 39,000  Level Kansas City Center
Mon 03:09:22 PM 39.7139 -91.0308 82° East 497 572 39,000  Level Kansas City Center
Mon 03:10:23 PM 39.7322 -90.8544 82° East 494 568 39,000  Level Kansas City Center
Mon 03:11:25 PM 39.7478 -90.6756 83° East 496 571 39,000  Level Kansas City Center
Mon 03:12:28 PM 39.7667 -90.4836 83° East 491 565 39,000  Level Kansas City Center
Mon 03:13:29 PM 39.7833 -90.3089 83° East 489 563 39,000  Level Kansas City Center
Mon 03:14:30 PM 39.7989 -90.1333 83° East 490 564 39,000  Level Kansas City Center
Mon 03:15:31 PM 39.8144 -89.9567 83° East 492 566 39,000  Level Kansas City Center
Mon 03:16:35 PM 39.8297 -89.7811 83° East 492 566 39,000  Level Kansas City Center
Mon 03:17:35 PM 39.8397 -89.6047 86° East 491 565 39,000  Level Kansas City Center
Mon 03:18:36 PM 39.8406 -89.3911 90° East 494 568 39,000  Level Kansas City Center
Mon 03:19:40 PM 39.8419 -89.2125 89° East 496 571 39,000  Level Kansas City Center
Mon 03:20:42 PM 39.8417 -89.0342 90° East 495 570 39,000  Level Kansas City Center
Mon 03:21:43 PM 39.8419 -88.8547 90° East 497 572 39,000  Level Kansas City Center
Mon 03:22:44 PM 39.8417 -88.6764 90° East 495 570 39,000  Level Kansas City Center
Mon 03:23:47 PM 39.8419 -88.5003 90° East 491 565 39,000  Level Kansas City Center
Mon 03:24:48 PM 39.8425 -88.2900 90° East 489 563 39,000  Level Kansas City Center
Mon 03:25:49 PM 39.8550 -88.1161 85° East 482 555 39,000  Level Kansas City Center
Mon 03:26:08 PM 39.8556 -88.0828 89° East 483 556 39,000  Level Indianapolis Center
Mon 03:27:10 PM 39.8664 -87.8719 86° East 482 555 39,000  Level Indianapolis Center
Mon 03:28:12 PM 39.8753 -87.6967 86° East 483 556 39,000  Level Indianapolis Center
Mon 03:29:14 PM 39.8839 -87.5200 86° East 485 558 39,000  Level Indianapolis Center
Mon 03:30:16 PM 39.8919 -87.3414 87° East 489 563 39,000  Level Indianapolis Center
Mon 03:31:17 PM 39.9000 -87.1633 87° East 490 564 39,000  Level Indianapolis Center
Mon 03:32:19 PM 39.9089 -86.9850 86° East 491 565 39,000  Level Indianapolis Center
Mon 03:33:21 PM 39.9156 -86.8039 87° East 497 572 39,000  Level Indianapolis Center
Mon 03:34:23 PM 39.9239 -86.6286 86° East 487 560 39,000  Level Indianapolis Center
Mon 03:35:25 PM 39.9300 -86.4533 87° East 482 555 39,000  Level Indianapolis Center
Mon 03:36:26 PM 39.9392 -86.2419 87° East 484 557 39,000  Level Indianapolis Center
Mon 03:37:28 PM 39.9453 -86.0661 87° East 484 557 39,000  Level Indianapolis Center
Mon 03:38:30 PM 39.9519 -85.9064 87° East 488 562 39,000  Level Indianapolis Center
Mon 03:39:32 PM 39.9575 -85.6986 88° East 488 562 39,000  Level Indianapolis Center
Mon 03:40:34 PM 39.9628 -85.5219 88° East 487 560 39,000  Level Indianapolis Center
Mon 03:41:35 PM 39.9694 -85.3464 87° East 483 556 39,000  Level Indianapolis Center
Mon 03:42:37 PM 39.9733 -85.1700 88° East 482 555 39,000  Level Indianapolis Center
Mon 03:43:39 PM 39.9794 -84.9956 87° East 479 551 39,000  Level Indianapolis Center
Mon 03:44:41 PM 39.9833 -84.8208 88° East 478 550 39,000  Level Indianapolis Center
Mon 03:45:43 PM 39.9886 -84.6458 88° East 479 551 39,000  Level Indianapolis Center
Mon 03:46:44 PM 39.9919 -84.4694 89° East 481 554 39,000  Level Indianapolis Center
Mon 03:47:46 PM 39.9969 -84.2942 88° East 482 555 39,000  Level Indianapolis Center
Mon 03:48:48 PM 40.0008 -84.0892 89° East 481 554 39,000  Level Indianapolis Center
Mon 03:49:50 PM 40.0031 -83.9128 89° East 480 552 39,000  Level Indianapolis Center
Mon 03:50:52 PM 40.0053 -83.7356 89° East 481 554 39,000  Level Indianapolis Center
Mon 03:51:54 PM 40.0083 -83.5575 89° East 482 555 39,000  Level Indianapolis Center
Mon 03:52:56 PM 40.0114 -83.3778 89° East 482 555 39,000  Level Indianapolis Center
Mon 03:53:57 PM 40.0142 -83.1997 89° East 482 555 39,000  Level Indianapolis Center
Mon 03:54:59 PM 40.0153 -83.0239 89° East 479 551 39,000  Level Indianapolis Center
Mon 03:56:01 PM 40.0172 -82.8489 89° East 477 549 39,000  Level Indianapolis Center
Mon 03:57:03 PM 40.0192 -82.6739 89° East 478 550 39,000  Level Indianapolis Center
Mon 03:58:05 PM 40.0197 -82.4989 90° East 479 551 39,000  Level Indianapolis Center
Mon 03:59:07 PM 40.0206 -82.3247 90° East 476 548 39,000  Level Indianapolis Center
Mon 04:00:08 PM 40.0211 -82.1489 90° East 482 555 39,000  Level Indianapolis Center
Mon 04:01:10 PM 40.0211 -81.9442 90° East 480 552 39,000  Level Indianapolis Center
Mon 04:02:12 PM 40.0211 -81.7683 90° East 481 554 39,000  Level Indianapolis Center
Mon 04:03:14 PM 40.0211 -81.6083 90° East 481 554 39,000  Level Indianapolis Center
Mon 04:04:16 PM 40.0200 -81.4314 90° East 484 557 39,000  Level Indianapolis Center
Mon 04:05:18 PM 40.0172 -81.2267 91° East 483 556 39,000  Level Indianapolis Center
Mon 04:06:19 PM 39.9900 -81.0558 102° East 478 550 39,000  Level Indianapolis Center
Mon 04:06:49 PM 39.9831 -80.9842 97° East 476 548 39,000  Level Cleveland Center
Mon 04:07:49 PM 39.9522 -80.7997 102° East 481 554 39,000  Level Cleveland Center
Mon 04:08:49 PM 39.9253 -80.6319 102° East 475 547 39,000  Level Cleveland Center
Mon 04:09:49 PM 39.8983 -80.4639 102° East 475 547 39,000  Level Cleveland Center
Mon 04:10:49 PM 39.8708 -80.2964 102° East 470 541 39,000 -150 Level Cleveland Center
Mon 04:11:49 PM 39.8433 -80.1317 102° East 470 541 38,700 -650 Descending Cleveland Center
Mon 04:12:49 PM 39.8133 -79.9642 103° East 470 541 37,700 -1,500 Descending Cleveland Center
Mon 04:13:49 PM 39.7850 -79.7942 102° East 470 541 35,700 -2,550 Descending Cleveland Center
Mon 04:14:49 PM 39.7567 -79.6272 102° East 470 541 32,600 -2,647 Descending Cleveland Center
Mon 04:15:31 PM 39.7389 -79.5286 103° East 469 540 31,200 -2,235 Descending Washington Center
Mon 04:16:31 PM 39.7108 -79.3653 103° East 464 534 28,800 -2,300 Descending Washington Center
Mon 04:17:31 PM 39.6864 -79.2131 102° East 452 520 26,600 -1,900 Descending Washington Center
Mon 04:18:31 PM 39.6575 -79.0658 104° East 431 496 25,000 -800 Descending Washington Center
Mon 04:19:31 PM 39.6203 -78.9053 107° East 418 481 25,000 -400 Level Washington Center
Mon 04:20:31 PM 39.5908 -78.7639 105° East 418 481 24,200 -1,350 Descending Washington Center
Mon 04:21:31 PM 39.5589 -78.6225 106° East 418 481 22,300 -1,900 Descending Washington Center
Mon 04:22:31 PM 39.5289 -78.4919 107° East 403 464 20,400 -1,850 Descending Washington Center
Mon 04:23:31 PM 39.5006 -78.3592 105° East 387 445 18,600 -2,150 Descending Washington Center
Mon 04:24:31 PM 39.4722 -78.2342 106° East 376 433 16,100 -1,800 Descending Washington Center
Mon 04:25:31 PM 39.4481 -78.1017 103° East 376 433 15,000 -550 Descending Washington Center
Mon 04:26:31 PM 39.4506 -77.9728 89° East 364 419 15,000  Level Washington Center
Mon 04:27:31 PM 39.4489 -77.8436 91° East 359 413 15,000  Level Washington Center
Mon 04:28:31 PM 39.4469 -77.7172 91° East 354 407 15,000 -800 Level Washington Center
Mon 04:29:31 PM 39.4469 -77.5911 90° East 349 402 13,400 -1,750 Descending Washington Center
Mon 04:30:31 PM 39.4450 -77.4647 91° East 349 402 11,500 -1,200 Descending Washington Center
Mon 04:31:31 PM 39.4508 -77.3519 86° East 332 382 11,000 -341 Descending Washington Center
Mon 04:31:59 PM 39.4667 -77.3000 68° East 299 344 11,000 -876 Level Potomac TRACON
Mon 04:33:00 PM 39.4833 -77.2000 78° East 300 345 9,700 -1,339 Descending Potomac TRACON
Mon 04:34:00 PM 39.5000 -77.1000 78° East 292 336 8,300 -1,350 Descending Potomac TRACON
Mon 04:35:00 PM 39.5167 -77.0000 78° East 281 323 7,000 -1,200 Descending Potomac TRACON
Mon 04:36:00 PM 39.5167 -76.9000 90° East 269 310 5,900 -1,316 Descending Potomac TRACON
Mon 04:36:54 PM 39.4833 -76.8500 131° Southeast 269 310 4,500 -1,000 Descending Potomac TRACON
Mon 04:37:54 PM 39.4333 -76.9167 226° Southwest 262 302 4,000 -250 Descending Potomac TRACON
Mon 04:38:54 PM 39.3833 -77.0000 232° Southwest 267 307 4,000 -400 Level Potomac TRACON
Mon 04:39:54 PM 39.3333 -77.0667 226° Southwest 274 315 3,200 -496 Descending Potomac TRACON
Mon 04:40:55 PM 39.2833 -77.0333 153° Southeast 233 268 3,000 -99 Descending Potomac TRACON
Mon 04:41:55 PM 39.2500 -76.9667 123° Southeast 188 216 3,000  Level Potomac TRACON
Mon 04:42:55 PM 39.2333 -76.9000 108° East 170 196 3,000 -50 Level Potomac TRACON
Mon 04:43:55 PM 39.2167 -76.8500 113° Southeast 170 196 2,900 -500 Descending Potomac TRACON
Mon 04:44:55 PM 39.1833 -76.8000 131° Southeast 170 196 2,000 -900 Descending Potomac TRACON
Mon 04:45:55 PM 39.1833 -76.7500 90° East 139 160 1,100 -800 Descending Potomac TRACON
Mon 04:46:55 PM 39.1833 -76.7000 90° East 128 147 400 -700 Descending Potomac TRACON
Mon 04:48:00 PM 39.1667 -76.6667 106° East  Level FlightAware Approximate

Login

Don't have an account? Register now (free) for customized features, flight alerts, and more!